sensor_id;sensor_type;location;lat;lon;timestamp;P1;durP1;ratioP1;P2;durP2;ratioP2
63784;SDS011;49927;48.146;11.420;2022-08-03T00:02:05;5.70;;;2.15;;
63784;SDS011;49927;48.146;11.420;2022-08-03T00:04:31;4.05;;;1.80;;
63784;SDS011;49927;48.146;11.420;2022-08-03T00:06:56;2.10;;;1.92;;
63784;SDS011;49927;48.146;11.420;2022-08-03T00:09:22;4.95;;;2.15;;
63784;SDS011;49927;48.146;11.420;2022-08-03T00:11:49;2.13;;;1.58;;
63784;SDS011;49927;48.146;11.420;2022-08-03T00:14:14;2.67;;;2.03;;
63784;SDS011;49927;48.146;11.420;2022-08-03T00:16:40;3.42;;;1.67;;
63784;SDS011;49927;48.146;11.420;2022-08-03T00:19:05;3.38;;;2.47;;
63784;SDS011;49927;48.146;11.420;2022-08-03T00:21:30;6.30;;;2.10;;
63784;SDS011;49927;48.146;11.420;2022-08-03T00:23:56;5.25;;;2.58;;
63784;SDS011;49927;48.146;11.420;2022-08-03T00:26:22;4.28;;;2.22;;
63784;SDS011;49927;48.146;11.420;2022-08-03T00:28:48;4.55;;;2.72;;
63784;SDS011;49927;48.146;11.420;2022-08-03T00:31:14;5.93;;;2.92;;
63784;SDS011;49927;48.146;11.420;2022-08-03T00:33:40;3.40;;;2.45;;
63784;SDS011;49927;48.146;11.420;2022-08-03T00:36:05;3.00;;;2.30;;
63784;SDS011;49927;48.146;11.420;2022-08-03T00:38:31;4.90;;;2.70;;
63784;SDS011;49927;48.146;11.420;2022-08-03T00:40:56;4.93;;;2.40;;
63784;SDS011;49927;48.146;11.420;2022-08-03T00:43:24;1.98;;;1.75;;
63784;SDS011;49927;48.146;11.420;2022-08-03T00:45:51;3.75;;;2.10;;
63784;SDS011;49927;48.146;11.420;2022-08-03T00:48:17;2.50;;;2.10;;
63784;SDS011;49927;48.146;11.420;2022-08-03T00:50:42;5.53;;;2.17;;
63784;SDS011;49927;48.146;11.420;2022-08-03T00:53:09;2.05;;;1.58;;
63784;SDS011;49927;48.146;11.420;2022-08-03T00:55:35;2.72;;;2.15;;
63784;SDS011;49927;48.146;11.420;2022-08-03T00:58:01;2.35;;;1.80;;
63784;SDS011;49927;48.146;11.420;2022-08-03T01:00:27;1.95;;;1.75;;
63784;SDS011;49927;48.146;11.420;2022-08-03T01:02:53;2.22;;;2.03;;
63784;SDS011;49927;48.146;11.420;2022-08-03T01:05:19;2.33;;;2.05;;
63784;SDS011;49927;48.146;11.420;2022-08-03T01:07:50;2.10;;;1.90;;
63784;SDS011;49927;48.146;11.420;2022-08-03T01:10:27;4.28;;;2.05;;
63784;SDS011;49927;48.146;11.420;2022-08-03T01:12:57;2.50;;;1.83;;
63784;SDS011;49927;48.146;11.420;2022-08-03T01:15:28;2.60;;;1.67;;
63784;SDS011;49927;48.146;11.420;2022-08-03T01:18:02;3.80;;;2.28;;
63784;SDS011;49927;48.146;11.420;2022-08-03T01:20:32;2.67;;;1.80;;
63784;SDS011;49927;48.146;11.420;2022-08-03T01:29:03;2.47;;;2.17;;
63784;SDS011;49927;48.146;11.420;2022-08-03T01:31:42;3.13;;;1.98;;
63784;SDS011;49927;48.146;11.420;2022-08-03T01:34:09;3.60;;;1.90;;
63784;SDS011;49927;48.146;11.420;2022-08-03T01:36:38;3.17;;;1.75;;
63784;SDS011;49927;48.146;11.420;2022-08-03T01:39:05;3.35;;;2.00;;
63784;SDS011;49927;48.146;11.420;2022-08-03T01:41:33;2.17;;;1.98;;
63784;SDS011;49927;48.146;11.420;2022-08-03T01:44:00;2.38;;;2.13;;
63784;SDS011;49927;48.146;11.420;2022-08-03T01:46:27;2.00;;;1.75;;
63784;SDS011;49927;48.146;11.420;2022-08-03T01:48:55;5.30;;;2.33;;
63784;SDS011;49927;48.146;11.420;2022-08-03T01:51:22;3.47;;;2.28;;
63784;SDS011;49927;48.146;11.420;2022-08-03T01:53:48;4.50;;;2.00;;
63784;SDS011;49927;48.146;11.420;2022-08-03T01:56:14;4.25;;;2.17;;
63784;SDS011;49927;48.146;11.420;2022-08-03T01:58:40;4.25;;;2.20;;
63784;SDS011;49927;48.146;11.420;2022-08-03T02:01:06;2.80;;;2.05;;
63784;SDS011;49927;48.146;11.420;2022-08-03T02:03:34;2.55;;;2.13;;
63784;SDS011;49927;48.146;11.420;2022-08-03T02:06:02;2.38;;;2.17;;
63784;SDS011;49927;48.146;11.420;2022-08-03T02:08:29;3.47;;;2.35;;
63784;SDS011;49927;48.146;11.420;2022-08-03T02:10:55;3.38;;;2.55;;
63784;SDS011;49927;48.146;11.420;2022-08-03T02:13:21;2.20;;;1.90;;
63784;SDS011;49927;48.146;11.420;2022-08-03T02:15:48;5.85;;;2.60;;
63784;SDS011;49927;48.146;11.420;2022-08-03T02:18:14;3.45;;;2.40;;
63784;SDS011;49927;48.146;11.420;2022-08-03T02:20:41;3.40;;;2.28;;
63784;SDS011;49927;48.146;11.420;2022-08-03T02:23:10;3.28;;;2.63;;
63784;SDS011;49927;48.146;11.420;2022-08-03T02:25:37;3.65;;;2.50;;
63784;SDS011;49927;48.146;11.420;2022-08-03T02:28:07;5.97;;;2.50;;
63784;SDS011;49927;48.146;11.420;2022-08-03T02:30:35;3.10;;;2.42;;
63784;SDS011;49927;48.146;11.420;2022-08-03T02:33:02;2.63;;;2.20;;
63784;SDS011;49927;48.146;11.420;2022-08-03T02:35:29;2.35;;;2.08;;
63784;SDS011;49927;48.146;11.420;2022-08-03T02:38:00;3.45;;;2.22;;
63784;SDS011;49927;48.146;11.420;2022-08-03T02:40:29;2.67;;;2.15;;
63784;SDS011;49927;48.146;11.420;2022-08-03T02:42:57;4.03;;;2.30;;
63784;SDS011;49927;48.146;11.420;2022-08-03T02:45:24;3.05;;;2.30;;
63784;SDS011;49927;48.146;11.420;2022-08-03T02:47:50;2.70;;;2.25;;
63784;SDS011;49927;48.146;11.420;2022-08-03T02:50:17;3.63;;;2.10;;
63784;SDS011;49927;48.146;11.420;2022-08-03T02:52:43;3.75;;;2.13;;
63784;SDS011;49927;48.146;11.420;2022-08-03T02:55:09;2.70;;;1.83;;
63784;SDS011;49927;48.146;11.420;2022-08-03T02:57:37;3.22;;;2.47;;
63784;SDS011;49927;48.146;11.420;2022-08-03T03:00:04;5.75;;;2.30;;
63784;SDS011;49927;48.146;11.420;2022-08-03T03:02:30;2.78;;;2.45;;
63784;SDS011;49927;48.146;11.420;2022-08-03T03:04:56;2.63;;;2.15;;
63784;SDS011;49927;48.146;11.420;2022-08-03T03:07:22;2.92;;;1.95;;
63784;SDS011;49927;48.146;11.420;2022-08-03T03:09:47;2.33;;;1.88;;
63784;SDS011;49927;48.146;11.420;2022-08-03T03:12:13;5.45;;;2.88;;
63784;SDS011;49927;48.146;11.420;2022-08-03T03:14:41;3.72;;;2.50;;
63784;SDS011;49927;48.146;11.420;2022-08-03T03:17:07;2.08;;;1.88;;
63784;SDS011;49927;48.146;11.420;2022-08-03T03:19:33;2.22;;;2.03;;
63784;SDS011;49927;48.146;11.420;2022-08-03T03:21:59;3.35;;;2.42;;
63784;SDS011;49927;48.146;11.420;2022-08-03T03:24:25;2.78;;;2.30;;
63784;SDS011;49927;48.146;11.420;2022-08-03T03:26:52;2.67;;;2.10;;
63784;SDS011;49927;48.146;11.420;2022-08-03T03:29:17;2.33;;;1.85;;
63784;SDS011;49927;48.146;11.420;2022-08-03T03:31:44;2.78;;;2.35;;
63784;SDS011;49927;48.146;11.420;2022-08-03T03:34:10;2.75;;;2.30;;
63784;SDS011;49927;48.146;11.420;2022-08-03T03:36:36;5.40;;;2.28;;
63784;SDS011;49927;48.146;11.420;2022-08-03T03:39:01;2.47;;;2.28;;
63784;SDS011;49927;48.146;11.420;2022-08-03T03:41:27;2.80;;;2.13;;
63784;SDS011;49927;48.146;11.420;2022-08-03T03:43:53;2.03;;;1.75;;
63784;SDS011;49927;48.146;11.420;2022-08-03T03:46:19;3.28;;;2.05;;
63784;SDS011;49927;48.146;11.420;2022-08-03T03:48:46;5.15;;;2.35;;
63784;SDS011;49927;48.146;11.420;2022-08-03T03:51:12;3.28;;;2.50;;
63784;SDS011;49927;48.146;11.420;2022-08-03T03:53:37;2.63;;;2.40;;
63784;SDS011;49927;48.146;11.420;2022-08-03T03:56:03;6.40;;;3.30;;
63784;SDS011;49927;48.146;11.420;2022-08-03T03:58:29;3.33;;;2.35;;
63784;SDS011;49927;48.146;11.420;2022-08-03T04:00:56;3.33;;;2.13;;
63784;SDS011;49927;48.146;11.420;2022-08-03T04:03:21;4.38;;;2.63;;
63784;SDS011;49927;48.146;11.420;2022-08-03T04:05:48;3.30;;;2.40;;
63784;SDS011;49927;48.146;11.420;2022-08-03T04:08:14;2.88;;;2.20;;
63784;SDS011;49927;48.146;11.420;2022-08-03T04:10:41;5.75;;;2.60;;
63784;SDS011;49927;48.146;11.420;2022-08-03T04:13:10;3.47;;;2.15;;
63784;SDS011;49927;48.146;11.420;2022-08-03T04:15:36;2.60;;;2.40;;
63784;SDS011;49927;48.146;11.420;2022-08-03T04:18:03;2.78;;;2.30;;
63784;SDS011;49927;48.146;11.420;2022-08-03T04:20:30;4.25;;;2.63;;
63784;SDS011;49927;48.146;11.420;2022-08-03T04:22:58;2.90;;;2.55;;
63784;SDS011;49927;48.146;11.420;2022-08-03T04:25:24;3.45;;;2.40;;
63784;SDS011;49927;48.146;11.420;2022-08-03T04:27:52;4.57;;;2.80;;
63784;SDS011;49927;48.146;11.420;2022-08-03T04:30:18;3.45;;;2.30;;
63784;SDS011;49927;48.146;11.420;2022-08-03T04:32:43;2.28;;;2.00;;
63784;SDS011;49927;48.146;11.420;2022-08-03T04:35:10;3.28;;;2.10;;
63784;SDS011;49927;48.146;11.420;2022-08-03T04:37:37;4.07;;;2.28;;
63784;SDS011;49927;48.146;11.420;2022-08-03T04:40:06;3.95;;;2.20;;
63784;SDS011;49927;48.146;11.420;2022-08-03T04:42:35;4.10;;;2.15;;
63784;SDS011;49927;48.146;11.420;2022-08-03T04:45:02;2.53;;;2.15;;
63784;SDS011;49927;48.146;11.420;2022-08-03T04:47:29;4.72;;;2.17;;
63784;SDS011;49927;48.146;11.420;2022-08-03T04:49:56;4.03;;;2.03;;
63784;SDS011;49927;48.146;11.420;2022-08-03T04:52:22;2.58;;;2.28;;
63784;SDS011;49927;48.146;11.420;2022-08-03T04:54:48;2.72;;;1.80;;
63784;SDS011;49927;48.146;11.420;2022-08-03T04:57:15;3.47;;;1.83;;
63784;SDS011;49927;48.146;11.420;2022-08-03T04:59:41;2.63;;;2.10;;
63784;SDS011;49927;48.146;11.420;2022-08-03T05:02:06;2.88;;;2.03;;
63784;SDS011;49927;48.146;11.420;2022-08-03T05:04:32;5.90;;;4.13;;
63784;SDS011;49927;48.146;11.420;2022-08-03T05:06:57;4.05;;;2.17;;
63784;SDS011;49927;48.146;11.420;2022-08-03T05:09:23;2.60;;;2.00;;
63784;SDS011;49927;48.146;11.420;2022-08-03T05:11:48;3.63;;;2.30;;
63784;SDS011;49927;48.146;11.420;2022-08-03T05:14:15;3.42;;;2.40;;
63784;SDS011;49927;48.146;11.420;2022-08-03T05:16:41;3.97;;;2.20;;
63784;SDS011;49927;48.146;11.420;2022-08-03T05:19:06;2.35;;;2.13;;
63784;SDS011;49927;48.146;11.420;2022-08-03T05:21:32;1.90;;;1.70;;
63784;SDS011;49927;48.146;11.420;2022-08-03T05:23:57;2.08;;;1.55;;
63784;SDS011;49927;48.146;11.420;2022-08-03T05:26:23;2.25;;;1.80;;
63784;SDS011;49927;48.146;11.420;2022-08-03T05:28:48;6.45;;;2.00;;
63784;SDS011;49927;48.146;11.420;2022-08-03T05:31:15;4.22;;;2.00;;
63784;SDS011;49927;48.146;11.420;2022-08-03T05:33:40;4.07;;;1.90;;
63784;SDS011;49927;48.146;11.420;2022-08-03T05:36:06;3.30;;;2.25;;
63784;SDS011;49927;48.146;11.420;2022-08-03T05:38:32;3.03;;;2.20;;
63784;SDS011;49927;48.146;11.420;2022-08-03T05:40:57;2.35;;;1.75;;
63784;SDS011;49927;48.146;11.420;2022-08-03T05:43:23;3.75;;;2.25;;
63784;SDS011;49927;48.146;11.420;2022-08-03T05:45:48;2.55;;;1.90;;
63784;SDS011;49927;48.146;11.420;2022-08-03T05:48:15;1.92;;;1.73;;
63784;SDS011;49927;48.146;11.420;2022-08-03T05:50:41;2.92;;;2.20;;
63784;SDS011;49927;48.146;11.420;2022-08-03T05:53:06;3.58;;;1.85;;
63784;SDS011;49927;48.146;11.420;2022-08-03T05:55:32;5.28;;;2.05;;
63784;SDS011;49927;48.146;11.420;2022-08-03T05:57:57;3.13;;;1.85;;
63784;SDS011;49927;48.146;11.420;2022-08-03T06:00:23;3.38;;;1.83;;
63784;SDS011;49927;48.146;11.420;2022-08-03T06:02:48;1.88;;;1.58;;
63784;SDS011;49927;48.146;11.420;2022-08-03T06:05:15;2.50;;;2.30;;
63784;SDS011;49927;48.146;11.420;2022-08-03T06:07:41;3.65;;;1.95;;
63784;SDS011;49927;48.146;11.420;2022-08-03T06:10:07;3.35;;;1.90;;
63784;SDS011;49927;48.146;11.420;2022-08-03T06:12:32;2.10;;;1.77;;
63784;SDS011;49927;48.146;11.420;2022-08-03T06:14:58;1.95;;;1.75;;
63784;SDS011;49927;48.146;11.420;2022-08-03T06:17:23;3.60;;;2.10;;
63784;SDS011;49927;48.146;11.420;2022-08-03T06:19:50;3.88;;;1.90;;
63784;SDS011;49927;48.146;11.420;2022-08-03T06:22:17;5.30;;;2.25;;
63784;SDS011;49927;48.146;11.420;2022-08-03T06:24:43;2.65;;;2.22;;
63784;SDS011;49927;48.146;11.420;2022-08-03T06:27:08;2.22;;;1.73;;
63784;SDS011;49927;48.146;11.420;2022-08-03T06:29:34;2.55;;;2.03;;
63784;SDS011;49927;48.146;11.420;2022-08-03T06:31:59;4.75;;;2.20;;
63784;SDS011;49927;48.146;11.420;2022-08-03T06:34:25;4.90;;;1.85;;
63784;SDS011;49927;48.146;11.420;2022-08-03T06:36:50;2.10;;;1.90;;
63784;SDS011;49927;48.146;11.420;2022-08-03T06:39:17;1.88;;;1.77;;
63784;SDS011;49927;48.146;11.420;2022-08-03T06:41:43;1.92;;;1.73;;
63784;SDS011;49927;48.146;11.420;2022-08-03T06:44:08;3.33;;;1.70;;
63784;SDS011;49927;48.146;11.420;2022-08-03T06:46:34;2.10;;;1.90;;
63784;SDS011;49927;48.146;11.420;2022-08-03T06:48:59;1.83;;;1.55;;
63784;SDS011;49927;48.146;11.420;2022-08-03T06:51:24;2.80;;;1.70;;
63784;SDS011;49927;48.146;11.420;2022-08-03T06:53:50;2.92;;;1.75;;
63784;SDS011;49927;48.146;11.420;2022-08-03T06:56:17;1.92;;;1.65;;
63784;SDS011;49927;48.146;11.420;2022-08-03T06:58:42;2.35;;;1.70;;
63784;SDS011;49927;48.146;11.420;2022-08-03T07:01:08;2.35;;;1.70;;
63784;SDS011;49927;48.146;11.420;2022-08-03T07:03:33;2.80;;;1.83;;
63784;SDS011;49927;48.146;11.420;2022-08-03T07:05:59;1.50;;;1.40;;
63784;SDS011;49927;48.146;11.420;2022-08-03T07:08:25;4.93;;;1.90;;
63784;SDS011;49927;48.146;11.420;2022-08-03T07:10:51;2.88;;;1.83;;
63784;SDS011;49927;48.146;11.420;2022-08-03T07:13:19;2.22;;;1.75;;
63784;SDS011;49927;48.146;11.420;2022-08-03T07:15:45;1.50;;;1.20;;
63784;SDS011;49927;48.146;11.420;2022-08-03T07:18:12;1.63;;;1.52;;
63784;SDS011;49927;48.146;11.420;2022-08-03T07:20:38;4.68;;;1.77;;
63784;SDS011;49927;48.146;11.420;2022-08-03T07:23:04;2.13;;;1.60;;
63784;SDS011;49927;48.146;11.420;2022-08-03T07:25:30;2.85;;;1.92;;
63784;SDS011;49927;48.146;11.420;2022-08-03T07:27:56;2.13;;;1.42;;
63784;SDS011;49927;48.146;11.420;2022-08-03T07:30:25;3.15;;;2.22;;
63784;SDS011;49927;48.146;11.420;2022-08-03T07:32:51;3.10;;;1.90;;
63784;SDS011;49927;48.146;11.420;2022-08-03T07:35:17;1.80;;;1.50;;
63784;SDS011;49927;48.146;11.420;2022-08-03T07:37:43;2.05;;;1.50;;
63784;SDS011;49927;48.146;11.420;2022-08-03T07:40:09;2.30;;;1.67;;
63784;SDS011;49927;48.146;11.420;2022-08-03T07:42:36;2.20;;;1.45;;
63784;SDS011;49927;48.146;11.420;2022-08-03T07:45:02;5.15;;;2.55;;
63784;SDS011;49927;48.146;11.420;2022-08-03T07:47:30;4.82;;;1.80;;
63784;SDS011;49927;48.146;11.420;2022-08-03T07:49:56;2.70;;;1.80;;
63784;SDS011;49927;48.146;11.420;2022-08-03T07:52:22;5.60;;;1.95;;
63784;SDS011;49927;48.146;11.420;2022-08-03T07:54:48;4.70;;;1.48;;
63784;SDS011;49927;48.146;11.420;2022-08-03T07:57:14;5.40;;;2.00;;
63784;SDS011;49927;48.146;11.420;2022-08-03T07:59:41;5.47;;;1.70;;
63784;SDS011;49927;48.146;11.420;2022-08-03T08:02:07;3.40;;;1.95;;
63784;SDS011;49927;48.146;11.420;2022-08-03T08:04:35;4.43;;;1.70;;
63784;SDS011;49927;48.146;11.420;2022-08-03T08:07:01;2.00;;;1.55;;
63784;SDS011;49927;48.146;11.420;2022-08-03T08:09:27;2.97;;;1.58;;
63784;SDS011;49927;48.146;11.420;2022-08-03T08:11:53;3.38;;;2.40;;
63784;SDS011;49927;48.146;11.420;2022-08-03T08:14:19;6.00;;;2.10;;
63784;SDS011;49927;48.146;11.420;2022-08-03T08:16:46;3.28;;;2.03;;
63784;SDS011;49927;48.146;11.420;2022-08-03T08:19:12;3.17;;;1.58;;
63784;SDS011;49927;48.146;11.420;2022-08-03T08:21:40;1.85;;;1.17;;
63784;SDS011;49927;48.146;11.420;2022-08-03T08:24:07;2.92;;;1.45;;
63784;SDS011;49927;48.146;11.420;2022-08-03T08:26:33;2.83;;;2.35;;
63784;SDS011;49927;48.146;11.420;2022-08-03T08:28:59;3.33;;;1.50;;
63784;SDS011;49927;48.146;11.420;2022-08-03T08:31:25;4.30;;;1.70;;
63784;SDS011;49927;48.146;11.420;2022-08-03T08:33:52;4.40;;;1.70;;
63784;SDS011;49927;48.146;11.420;2022-08-03T08:36:18;3.70;;;1.80;;
63784;SDS011;49927;48.146;11.420;2022-08-03T08:38:46;2.28;;;1.63;;
63784;SDS011;49927;48.146;11.420;2022-08-03T08:41:13;3.10;;;1.70;;
63784;SDS011;49927;48.146;11.420;2022-08-03T08:43:40;4.28;;;1.35;;
63784;SDS011;49927;48.146;11.420;2022-08-03T08:46:07;1.33;;;1.20;;
63784;SDS011;49927;48.146;11.420;2022-08-03T08:48:38;1.52;;;1.40;;
63784;SDS011;49927;48.146;11.420;2022-08-03T08:51:06;3.42;;;1.50;;
63784;SDS011;49927;48.146;11.420;2022-08-03T08:53:34;1.65;;;1.27;;
63784;SDS011;49927;48.146;11.420;2022-08-03T08:56:03;2.65;;;1.23;;
63784;SDS011;49927;48.146;11.420;2022-08-03T08:58:32;1.60;;;1.48;;
63784;SDS011;49927;48.146;11.420;2022-08-03T09:01:01;1.90;;;1.40;;
63784;SDS011;49927;48.146;11.420;2022-08-03T09:03:27;1.85;;;1.25;;
63784;SDS011;49927;48.146;11.420;2022-08-03T09:05:54;3.50;;;1.35;;
63784;SDS011;49927;48.146;11.420;2022-08-03T09:08:20;2.22;;;1.00;;
63784;SDS011;49927;48.146;11.420;2022-08-03T09:10:46;1.35;;;1.20;;
63784;SDS011;49927;48.146;11.420;2022-08-03T09:13:17;3.45;;;1.33;;
63784;SDS011;49927;48.146;11.420;2022-08-03T09:15:45;2.08;;;1.33;;
63784;SDS011;49927;48.146;11.420;2022-08-03T09:18:11;2.70;;;1.35;;
63784;SDS011;49927;48.146;11.420;2022-08-03T09:20:38;1.50;;;1.00;;
63784;SDS011;49927;48.146;11.420;2022-08-03T09:23:05;1.55;;;1.45;;
63784;SDS011;49927;48.146;11.420;2022-08-03T09:25:33;2.60;;;1.35;;
63784;SDS011;49927;48.146;11.420;2022-08-03T09:28:06;1.40;;;1.20;;
63784;SDS011;49927;48.146;11.420;2022-08-03T09:30:35;2.58;;;1.48;;
63784;SDS011;49927;48.146;11.420;2022-08-03T09:33:02;2.92;;;1.40;;
63784;SDS011;49927;48.146;11.420;2022-08-03T09:35:29;3.72;;;1.20;;
63784;SDS011;49927;48.146;11.420;2022-08-03T09:38:08;2.80;;;1.60;;
63784;SDS011;49927;48.146;11.420;2022-08-03T09:40:35;1.65;;;1.55;;
63784;SDS011;49927;48.146;11.420;2022-08-03T09:43:02;1.48;;;1.35;;
63784;SDS011;49927;48.146;11.420;2022-08-03T09:45:28;2.50;;;1.27;;
63784;SDS011;49927;48.146;11.420;2022-08-03T09:47:56;1.50;;;1.20;;
63784;SDS011;49927;48.146;11.420;2022-08-03T09:50:22;1.70;;;1.25;;
63784;SDS011;49927;48.146;11.420;2022-08-03T09:52:48;7.45;;;1.98;;
63784;SDS011;49927;48.146;11.420;2022-08-03T09:55:16;2.58;;;1.50;;
63784;SDS011;49927;48.146;11.420;2022-08-03T09:57:42;1.52;;;1.10;;
63784;SDS011;49927;48.146;11.420;2022-08-03T10:00:09;1.23;;;1.10;;
63784;SDS011;49927;48.146;11.420;2022-08-03T10:02:37;1.65;;;1.10;;
63784;SDS011;49927;48.146;11.420;2022-08-03T10:05:06;2.10;;;1.10;;
63784;SDS011;49927;48.146;11.420;2022-08-03T10:07:41;2.53;;;1.17;;
63784;SDS011;49927;48.146;11.420;2022-08-03T10:10:08;1.63;;;1.30;;
63784;SDS011;49927;48.146;11.420;2022-08-03T10:12:34;2.00;;;1.58;;
63784;SDS011;49927;48.146;11.420;2022-08-03T10:15:01;5.18;;;1.50;;
63784;SDS011;49927;48.146;11.420;2022-08-03T10:17:27;1.83;;;1.42;;
63784;SDS011;49927;48.146;11.420;2022-08-03T10:19:53;1.27;;;1.17;;
63784;SDS011;49927;48.146;11.420;2022-08-03T10:22:21;3.13;;;1.48;;
63784;SDS011;49927;48.146;11.420;2022-08-03T10:24:49;2.35;;;1.42;;
63784;SDS011;49927;48.146;11.420;2022-08-03T10:27:18;2.53;;;1.60;;
63784;SDS011;49927;48.146;11.420;2022-08-03T10:29:47;1.40;;;1.20;;
63784;SDS011;49927;48.146;11.420;2022-08-03T10:32:17;1.75;;;1.40;;
63784;SDS011;49927;48.146;11.420;2022-08-03T10:34:47;1.50;;;1.10;;
63784;SDS011;49927;48.146;11.420;2022-08-03T10:37:15;1.88;;;1.67;;
63784;SDS011;49927;48.146;11.420;2022-08-03T10:39:43;3.72;;;1.20;;
63784;SDS011;49927;48.146;11.420;2022-08-03T10:42:10;1.67;;;1.35;;
63784;SDS011;49927;48.146;11.420;2022-08-03T10:44:38;2.80;;;1.50;;
63784;SDS011;49927;48.146;11.420;2022-08-03T10:47:04;1.13;;;0.95;;
63784;SDS011;49927;48.146;11.420;2022-08-03T10:49:30;3.22;;;1.30;;
63784;SDS011;49927;48.146;11.420;2022-08-03T10:51:57;4.00;;;1.42;;
63784;SDS011;49927;48.146;11.420;2022-08-03T10:54:39;1.20;;;1.10;;
63784;SDS011;49927;48.146;11.420;2022-08-03T10:57:07;3.35;;;1.63;;
63784;SDS011;49927;48.146;11.420;2022-08-03T11:00:10;1.20;;;1.00;;
63784;SDS011;49927;48.146;11.420;2022-08-03T11:05:43;2.38;;;1.40;;
63784;SDS011;49927;48.146;11.420;2022-08-03T11:08:17;3.05;;;1.55;;
63784;SDS011;49927;48.146;11.420;2022-08-03T11:10:44;1.38;;;1.20;;
63784;SDS011;49927;48.146;11.420;2022-08-03T11:13:13;2.45;;;1.20;;
63784;SDS011;49927;48.146;11.420;2022-08-03T11:15:40;1.50;;;1.38;;
63784;SDS011;49927;48.146;11.420;2022-08-03T11:18:09;1.63;;;1.48;;
63784;SDS011;49927;48.146;11.420;2022-08-03T11:20:48;0.90;;;0.90;;
63784;SDS011;49927;48.146;11.420;2022-08-03T11:23:16;1.65;;;1.55;;
63784;SDS011;49927;48.146;11.420;2022-08-03T11:28:36;3.08;;;1.77;;
63784;SDS011;49927;48.146;11.420;2022-08-03T11:34:11;3.47;;;1.20;;
63784;SDS011;49927;48.146;11.420;2022-08-03T11:39:37;1.70;;;1.40;;
63784;SDS011;49927;48.146;11.420;2022-08-03T11:45:05;2.78;;;2.13;;
63784;SDS011;49927;48.146;11.420;2022-08-03T11:47:34;2.08;;;1.73;;
63784;SDS011;49927;48.146;11.420;2022-08-03T11:50:01;1.58;;;1.13;;
63784;SDS011;49927;48.146;11.420;2022-08-03T11:52:33;1.27;;;1.05;;
63784;SDS011;49927;48.146;11.420;2022-08-03T11:55:00;1.98;;;1.33;;
63784;SDS011;49927;48.146;11.420;2022-08-03T11:57:30;2.75;;;1.35;;
63784;SDS011;49927;48.146;11.420;2022-08-03T11:59:57;1.65;;;1.55;;
63784;SDS011;49927;48.146;11.420;2022-08-03T12:02:24;1.17;;;0.98;;
63784;SDS011;49927;48.146;11.420;2022-08-03T12:04:51;1.92;;;1.58;;
63784;SDS011;49927;48.146;11.420;2022-08-03T12:07:18;2.63;;;2.03;;
63784;SDS011;49927;48.146;11.420;2022-08-03T12:12:35;1.63;;;1.30;;
63784;SDS011;49927;48.146;11.420;2022-08-03T12:15:03;1.70;;;1.00;;
63784;SDS011;49927;48.146;11.420;2022-08-03T12:17:33;1.60;;;1.33;;
63784;SDS011;49927;48.146;11.420;2022-08-03T12:19:59;3.17;;;1.98;;
63784;SDS011;49927;48.146;11.420;2022-08-03T12:22:32;1.50;;;1.40;;
63784;SDS011;49927;48.146;11.420;2022-08-03T12:24:58;1.73;;;0.98;;
63784;SDS011;49927;48.146;11.420;2022-08-03T12:27:25;1.08;;;1.02;;
63784;SDS011;49927;48.146;11.420;2022-08-03T12:29:52;2.47;;;1.38;;
63784;SDS011;49927;48.146;11.420;2022-08-03T12:32:19;4.05;;;1.40;;
63784;SDS011;49927;48.146;11.420;2022-08-03T12:34:47;1.75;;;1.20;;
63784;SDS011;49927;48.146;11.420;2022-08-03T12:37:17;1.42;;;1.25;;
63784;SDS011;49927;48.146;11.420;2022-08-03T12:39:43;1.33;;;1.10;;
63784;SDS011;49927;48.146;11.420;2022-08-03T12:42:14;1.45;;;1.13;;
63784;SDS011;49927;48.146;11.420;2022-08-03T12:44:41;1.55;;;1.30;;
63784;SDS011;49927;48.146;11.420;2022-08-03T12:47:07;1.98;;;1.27;;
63784;SDS011;49927;48.146;11.420;2022-08-03T12:49:43;3.75;;;1.40;;
63784;SDS011;49927;48.146;11.420;2022-08-03T12:52:11;1.80;;;0.98;;
63784;SDS011;49927;48.146;11.420;2022-08-03T12:54:37;1.38;;;1.27;;
63784;SDS011;49927;48.146;11.420;2022-08-03T12:57:04;1.17;;;1.08;;
63784;SDS011;49927;48.146;11.420;2022-08-03T12:59:31;2.30;;;1.15;;
63784;SDS011;49927;48.146;11.420;2022-08-03T13:01:58;1.48;;;1.38;;
63784;SDS011;49927;48.146;11.420;2022-08-03T13:04:25;1.40;;;1.30;;
63784;SDS011;49927;48.146;11.420;2022-08-03T13:06:58;4.43;;;2.00;;
63784;SDS011;49927;48.146;11.420;2022-08-03T13:09:27;1.35;;;0.93;;
63784;SDS011;49927;48.146;11.420;2022-08-03T13:12:06;1.45;;;1.30;;
63784;SDS011;49927;48.146;11.420;2022-08-03T13:14:33;2.22;;;1.13;;
63784;SDS011;49927;48.146;11.420;2022-08-03T13:17:00;2.25;;;1.10;;
63784;SDS011;49927;48.146;11.420;2022-08-03T13:19:26;1.10;;;1.00;;
63784;SDS011;49927;48.146;11.420;2022-08-03T13:21:52;1.45;;;1.30;;
63784;SDS011;49927;48.146;11.420;2022-08-03T13:24:18;3.05;;;1.52;;
63784;SDS011;49927;48.146;11.420;2022-08-03T13:26:46;2.08;;;1.67;;
63784;SDS011;49927;48.146;11.420;2022-08-03T13:29:12;2.03;;;1.35;;
63784;SDS011;49927;48.146;11.420;2022-08-03T13:31:38;2.10;;;1.23;;
63784;SDS011;49927;48.146;11.420;2022-08-03T13:34:05;1.67;;;1.25;;
63784;SDS011;49927;48.146;11.420;2022-08-03T13:36:31;3.22;;;1.92;;
63784;SDS011;49927;48.146;11.420;2022-08-03T13:38:57;2.97;;;1.35;;
63784;SDS011;49927;48.146;11.420;2022-08-03T13:41:23;1.30;;;1.05;;
63784;SDS011;49927;48.146;11.420;2022-08-03T13:43:51;1.02;;;1.00;;
63784;SDS011;49927;48.146;11.420;2022-08-03T13:46:17;1.60;;;1.50;;
63784;SDS011;49927;48.146;11.420;2022-08-03T13:48:43;1.98;;;1.00;;
63784;SDS011;49927;48.146;11.420;2022-08-03T13:51:10;1.55;;;1.10;;
63784;SDS011;49927;48.146;11.420;2022-08-03T13:53:36;1.30;;;1.20;;
63784;SDS011;49927;48.146;11.420;2022-08-03T13:56:02;1.50;;;1.40;;
63784;SDS011;49927;48.146;11.420;2022-08-03T13:58:29;1.10;;;0.93;;
63784;SDS011;49927;48.146;11.420;2022-08-03T14:00:57;1.45;;;1.08;;
63784;SDS011;49927;48.146;11.420;2022-08-03T14:03:23;1.92;;;1.02;;
63784;SDS011;49927;48.146;11.420;2022-08-03T14:05:49;1.65;;;1.40;;
63784;SDS011;49927;48.146;11.420;2022-08-03T14:08:16;1.67;;;1.58;;
63784;SDS011;49927;48.146;11.420;2022-08-03T14:10:42;1.58;;;1.20;;
63784;SDS011;49927;48.146;11.420;2022-08-03T14:13:09;1.30;;;1.20;;
63784;SDS011;49927;48.146;11.420;2022-08-03T14:15:36;1.20;;;1.00;;
63784;SDS011;49927;48.146;11.420;2022-08-03T14:18:04;3.28;;;1.20;;
63784;SDS011;49927;48.146;11.420;2022-08-03T14:20:30;1.52;;;1.40;;
63784;SDS011;49927;48.146;11.420;2022-08-03T14:22:56;0.90;;;0.90;;
63784;SDS011;49927;48.146;11.420;2022-08-03T14:25:23;1.20;;;1.10;;
63784;SDS011;49927;48.146;11.420;2022-08-03T14:27:49;1.98;;;1.38;;
63784;SDS011;49927;48.146;11.420;2022-08-03T14:30:16;1.25;;;1.10;;
63784;SDS011;49927;48.146;11.420;2022-08-03T14:32:42;3.60;;;1.42;;
63784;SDS011;49927;48.146;11.420;2022-08-03T14:35:10;1.73;;;1.40;;
63784;SDS011;49927;48.146;11.420;2022-08-03T14:37:36;1.65;;;1.13;;
63784;SDS011;49927;48.146;11.420;2022-08-03T14:40:03;3.05;;;1.00;;
63784;SDS011;49927;48.146;11.420;2022-08-03T14:42:30;1.27;;;1.17;;
63784;SDS011;49927;48.146;11.420;2022-08-03T14:44:56;0.90;;;0.90;;
63784;SDS011;49927;48.146;11.420;2022-08-03T14:47:22;1.27;;;0.90;;
63784;SDS011;49927;48.146;11.420;2022-08-03T14:49:49;1.65;;;0.90;;
63784;SDS011;49927;48.146;11.420;2022-08-03T14:52:16;2.58;;;1.48;;
63784;SDS011;49927;48.146;11.420;2022-08-03T14:54:44;1.92;;;1.08;;
63784;SDS011;49927;48.146;11.420;2022-08-03T14:57:10;1.65;;;1.00;;